sensor_id;sensor_type;location;lat;lon;timestamp;temperature;humidity
5554;DHT22;2800;49.528;8.666;2022-09-29T00:01:37;8.50;99.90
5554;DHT22;2800;49.528;8.666;2022-09-29T00:04:03;8.50;99.90
5554;DHT22;2800;49.528;8.666;2022-09-29T00:06:28;8.40;99.90
5554;DHT22;2800;49.528;8.666;2022-09-29T00:08:54;8.30;99.90
5554;DHT22;2800;49.528;8.666;2022-09-29T00:11:19;8.20;99.90
5554;DHT22;2800;49.528;8.666;2022-09-29T00:13:46;8.10;99.90
5554;DHT22;2800;49.528;8.666;2022-09-29T00:16:12;8.00;99.90
5554;DHT22;2800;49.528;8.666;2022-09-29T00:18:37;7.90;99.90
5554;DHT22;2800;49.528;8.666;2022-09-29T00:21:12;7.90;99.90
5554;DHT22;2800;49.528;8.666;2022-09-29T00:23:38;7.90;99.90
5554;DHT22;2800;49.528;8.666;2022-09-29T00:26:16;7.90;99.90
5554;DHT22;2800;49.528;8.666;2022-09-29T00:28:49;7.80;99.90
5554;DHT22;2800;49.528;8.666;2022-09-29T00:31:18;7.70;99.90
5554;DHT22;2800;49.528;8.666;2022-09-29T00:33:43;7.60;99.90
5554;DHT22;2800;49.528;8.666;2022-09-29T00:36:12;7.60;99.90
5554;DHT22;2800;49.528;8.666;2022-09-29T00:38:39;7.60;99.90
5554;DHT22;2800;49.528;8.666;2022-09-29T00:41:05;7.70;99.90
5554;DHT22;2800;49.528;8.666;2022-09-29T00:49:22;7.60;99.90
5554;DHT22;2800;49.528;8.666;2022-09-29T00:52:02;7.60;99.90
5554;DHT22;2800;49.528;8.666;2022-09-29T00:54:37;7.50;99.90
5554;DHT22;2800;49.528;8.666;2022-09-29T00:57:06;7.40;99.90
5554;DHT22;2800;49.528;8.666;2022-09-29T00:59:40;7.30;99.90
5554;DHT22;2800;49.528;8.666;2022-09-29T01:02:11;7.30;99.90
5554;DHT22;2800;49.528;8.666;2022-09-29T01:04:36;7.30;99.90
5554;DHT22;2800;49.528;8.666;2022-09-29T01:07:02;7.30;99.90
5554;DHT22;2800;49.528;8.666;2022-09-29T01:09:31;7.20;99.90
5554;DHT22;2800;49.528;8.666;2022-09-29T01:11:58;7.20;99.90
5554;DHT22;2800;49.528;8.666;2022-09-29T01:14:26;7.20;99.90
5554;DHT22;2800;49.528;8.666;2022-09-29T01:16:52;7.10;99.90
5554;DHT22;2800;49.528;8.666;2022-09-29T01:19:30;7.10;99.90
5554;DHT22;2800;49.528;8.666;2022-09-29T01:43:39;6.90;99.90
5554;DHT22;2800;49.528;8.666;2022-09-29T01:46:22;6.80;99.90
5554;DHT22;2800;49.528;8.666;2022-09-29T01:48:51;6.80;99.90
5554;DHT22;2800;49.528;8.666;2022-09-29T01:51:35;6.80;99.90
5554;DHT22;2800;49.528;8.666;2022-09-29T01:54:09;6.80;99.90
5554;DHT22;2800;49.528;8.666;2022-09-29T01:56:41;6.80;99.90
5554;DHT22;2800;49.528;8.666;2022-09-29T01:59:17;6.80;99.90
5554;DHT22;2800;49.528;8.666;2022-09-29T02:01:45;6.80;99.90
5554;DHT22;2800;49.528;8.666;2022-09-29T02:04:16;6.90;99.90
5554;DHT22;2800;49.528;8.666;2022-09-29T02:06:55;6.90;99.90
5554;DHT22;2800;49.528;8.666;2022-09-29T02:09:26;6.90;99.90
5554;DHT22;2800;49.528;8.666;2022-09-29T02:11:53;6.90;99.90
5554;DHT22;2800;49.528;8.666;2022-09-29T02:14:24;6.90;99.90
5554;DHT22;2800;49.528;8.666;2022-09-29T02:17:21;6.90;99.90
5554;DHT22;2800;49.528;8.666;2022-09-29T02:19:48;6.80;99.90
5554;DHT22;2800;49.528;8.666;2022-09-29T02:22:14;6.80;99.90
5554;DHT22;2800;49.528;8.666;2022-09-29T02:24:40;6.70;99.90
5554;DHT22;2800;49.528;8.666;2022-09-29T02:27:06;6.60;99.90
5554;DHT22;2800;49.528;8.666;2022-09-29T02:29:33;6.50;99.90
5554;DHT22;2800;49.528;8.666;2022-09-29T02:32:01;6.50;99.90
5554;DHT22;2800;49.528;8.666;2022-09-29T02:34:31;6.40;99.90
5554;DHT22;2800;49.528;8.666;2022-09-29T02:40:08;6.40;99.90
5554;DHT22;2800;49.528;8.666;2022-09-29T02:45:27;6.50;99.90
5554;DHT22;2800;49.528;8.666;2022-09-29T02:59:14;6.40;99.90
5554;DHT22;2800;49.528;8.666;2022-09-29T03:01:52;6.30;99.90
5554;DHT22;2800;49.528;8.666;2022-09-29T03:04:19;6.30;99.90
5554;DHT22;2800;49.528;8.666;2022-09-29T03:06:46;6.30;99.90
5554;DHT22;2800;49.528;8.666;2022-09-29T03:09:11;6.30;99.90
5554;DHT22;2800;49.528;8.666;2022-09-29T03:11:37;6.40;99.90
5554;DHT22;2800;49.528;8.666;2022-09-29T03:14:02;6.40;99.90
5554;DHT22;2800;49.528;8.666;2022-09-29T03:16:28;6.60;99.90
5554;DHT22;2800;49.528;8.666;2022-09-29T03:18:54;6.60;99.90
5554;DHT22;2800;49.528;8.666;2022-09-29T03:21:21;6.60;99.90
5554;DHT22;2800;49.528;8.666;2022-09-29T03:23:46;6.50;99.90
5554;DHT22;2800;49.528;8.666;2022-09-29T03:26:12;6.50;99.90
5554;DHT22;2800;49.528;8.666;2022-09-29T03:28:37;6.40;99.90
5554;DHT22;2800;49.528;8.666;2022-09-29T03:31:07;6.40;99.90
5554;DHT22;2800;49.528;8.666;2022-09-29T03:33:37;6.40;99.90
5554;DHT22;2800;49.528;8.666;2022-09-29T03:36:05;6.40;99.90
5554;DHT22;2800;49.528;8.666;2022-09-29T03:38:32;6.50;99.90
5554;DHT22;2800;49.528;8.666;2022-09-29T03:40:57;6.40;99.90
5554;DHT22;2800;49.528;8.666;2022-09-29T03:43:23;6.40;99.90
5554;DHT22;2800;49.528;8.666;2022-09-29T03:45:52;6.40;99.90
5554;DHT22;2800;49.528;8.666;2022-09-29T03:48:19;6.30;99.90
5554;DHT22;2800;49.528;8.666;2022-09-29T03:50:45;6.50;99.90
5554;DHT22;2800;49.528;8.666;2022-09-29T03:53:11;6.50;99.90
5554;DHT22;2800;49.528;8.666;2022-09-29T03:55:37;6.40;99.90
5554;DHT22;2800;49.528;8.666;2022-09-29T03:58:02;6.40;99.90
5554;DHT22;2800;49.528;8.666;2022-09-29T04:00:28;6.40;99.90
5554;DHT22;2800;49.528;8.666;2022-09-29T04:02:54;6.40;99.90
5554;DHT22;2800;49.528;8.666;2022-09-29T04:05:20;6.30;99.90
5554;DHT22;2800;49.528;8.666;2022-09-29T04:07:46;6.40;99.90
5554;DHT22;2800;49.528;8.666;2022-09-29T04:10:11;6.40;99.90
5554;DHT22;2800;49.528;8.666;2022-09-29T04:12:37;6.40;99.90
5554;DHT22;2800;49.528;8.666;2022-09-29T04:15:03;6.50;99.90
5554;DHT22;2800;49.528;8.666;2022-09-29T04:17:29;6.50;99.90
5554;DHT22;2800;49.528;8.666;2022-09-29T04:19:54;6.50;99.90
5554;DHT22;2800;49.528;8.666;2022-09-29T04:22:20;6.60;99.90
5554;DHT22;2800;49.528;8.666;2022-09-29T04:24:46;6.50;99.90
5554;DHT22;2800;49.528;8.666;2022-09-29T04:27:13;6.50;99.90
5554;DHT22;2800;49.528;8.666;2022-09-29T04:29:38;6.50;99.90
5554;DHT22;2800;49.528;8.666;2022-09-29T04:32:04;6.50;99.90
5554;DHT22;2800;49.528;8.666;2022-09-29T04:34:31;6.60;99.90
5554;DHT22;2800;49.528;8.666;2022-09-29T04:36:56;6.60;99.90
5554;DHT22;2800;49.528;8.666;2022-09-29T04:39:22;6.70;99.90
5554;DHT22;2800;49.528;8.666;2022-09-29T04:41:48;6.60;99.90
5554;DHT22;2800;49.528;8.666;2022-09-29T04:44:13;6.50;99.90
5554;DHT22;2800;49.528;8.666;2022-09-29T04:46:39;6.50;99.90
5554;DHT22;2800;49.528;8.666;2022-09-29T04:49:04;6.50;99.90
5554;DHT22;2800;49.528;8.666;2022-09-29T04:51:30;6.50;99.90
5554;DHT22;2800;49.528;8.666;2022-09-29T04:53:57;6.50;99.90
5554;DHT22;2800;49.528;8.666;2022-09-29T04:56:23;6.50;99.90
5554;DHT22;2800;49.528;8.666;2022-09-29T04:58:48;6.50;99.90
5554;DHT22;2800;49.528;8.666;2022-09-29T05:01:14;6.60;99.90
5554;DHT22;2800;49.528;8.666;2022-09-29T05:03:40;6.60;99.90
5554;DHT22;2800;49.528;8.666;2022-09-29T05:06:08;6.70;99.90
5554;DHT22;2800;49.528;8.666;2022-09-29T05:08:34;6.70;99.90
5554;DHT22;2800;49.528;8.666;2022-09-29T05:11:07;6.70;99.90
5554;DHT22;2800;49.528;8.666;2022-09-29T05:13:33;6.70;99.90
5554;DHT22;2800;49.528;8.666;2022-09-29T05:15:59;6.70;99.90
5554;DHT22;2800;49.528;8.666;2022-09-29T05:18:25;6.50;99.90
5554;DHT22;2800;49.528;8.666;2022-09-29T05:20:50;6.50;99.90
5554;DHT22;2800;49.528;8.666;2022-09-29T05:23:16;6.50;99.90
5554;DHT22;2800;49.528;8.666;2022-09-29T05:25:42;6.50;99.90
5554;DHT22;2800;49.528;8.666;2022-09-29T05:28:09;6.50;99.90
5554;DHT22;2800;49.528;8.666;2022-09-29T05:30:35;6.50;99.90
5554;DHT22;2800;49.528;8.666;2022-09-29T05:33:01;6.40;99.90
5554;DHT22;2800;49.528;8.666;2022-09-29T05:35:26;6.40;99.90
5554;DHT22;2800;49.528;8.666;2022-09-29T05:37:52;6.50;99.90
5554;DHT22;2800;49.528;8.666;2022-09-29T05:40:17;6.40;99.90
5554;DHT22;2800;49.528;8.666;2022-09-29T05:42:44;6.40;99.90
5554;DHT22;2800;49.528;8.666;2022-09-29T05:45:09;6.50;99.90
5554;DHT22;2800;49.528;8.666;2022-09-29T05:47:40;6.60;99.90
5554;DHT22;2800;49.528;8.666;2022-09-29T05:50:06;6.50;99.90
5554;DHT22;2800;49.528;8.666;2022-09-29T05:52:32;6.50;99.90
5554;DHT22;2800;49.528;8.666;2022-09-29T05:54:57;6.50;99.90
5554;DHT22;2800;49.528;8.666;2022-09-29T05:57:23;6.50;99.90
5554;DHT22;2800;49.528;8.666;2022-09-29T05:59:48;6.50;99.90
5554;DHT22;2800;49.528;8.666;2022-09-29T06:02:14;6.60;99.90
5554;DHT22;2800;49.528;8.666;2022-09-29T06:04:41;6.60;99.90
5554;DHT22;2800;49.528;8.666;2022-09-29T06:07:06;6.70;99.90
5554;DHT22;2800;49.528;8.666;2022-09-29T06:09:33;6.80;99.90
5554;DHT22;2800;49.528;8.666;2022-09-29T06:12:00;6.90;99.90
5554;DHT22;2800;49.528;8.666;2022-09-29T06:14:26;7.00;99.90
5554;DHT22;2800;49.528;8.666;2022-09-29T06:16:52;7.10;99.90
5554;DHT22;2800;49.528;8.666;2022-09-29T06:19:18;7.10;99.90
5554;DHT22;2800;49.528;8.666;2022-09-29T06:21:43;7.40;99.90
5554;DHT22;2800;49.528;8.666;2022-09-29T06:24:09;7.80;99.90
5554;DHT22;2800;49.528;8.666;2022-09-29T06:26:35;8.10;99.90
5554;DHT22;2800;49.528;8.666;2022-09-29T06:29:01;8.30;99.90
5554;DHT22;2800;49.528;8.666;2022-09-29T06:31:28;8.40;99.90
5554;DHT22;2800;49.528;8.666;2022-09-29T06:33:59;8.50;99.90
5554;DHT22;2800;49.528;8.666;2022-09-29T06:36:40;8.80;99.90
5554;DHT22;2800;49.528;8.666;2022-09-29T06:39:24;8.90;99.90
5554;DHT22;2800;49.528;8.666;2022-09-29T06:41:50;9.40;99.90
5554;DHT22;2800;49.528;8.666;2022-09-29T06:44:22;9.50;99.90
5554;DHT22;2800;49.528;8.666;2022-09-29T06:46:49;9.50;99.90
5554;DHT22;2800;49.528;8.666;2022-09-29T06:49:16;9.50;99.90
5554;DHT22;2800;49.528;8.666;2022-09-29T06:51:42;9.60;99.90
5554;DHT22;2800;49.528;8.666;2022-09-29T06:54:10;9.90;99.90
5554;DHT22;2800;49.528;8.666;2022-09-29T06:56:35;10.10;99.90
5554;DHT22;2800;49.528;8.666;2022-09-29T06:59:01;10.30;99.90
5554;DHT22;2800;49.528;8.666;2022-09-29T07:01:27;10.50;99.90
5554;DHT22;2800;49.528;8.666;2022-09-29T07:03:52;10.20;99.90
5554;DHT22;2800;49.528;8.666;2022-09-29T07:06:18;10.20;99.90
5554;DHT22;2800;49.528;8.666;2022-09-29T07:08:43;10.40;99.90
5554;DHT22;2800;49.528;8.666;2022-09-29T07:11:09;10.40;99.90
5554;DHT22;2800;49.528;8.666;2022-09-29T07:13:36;10.40;99.90
5554;DHT22;2800;49.528;8.666;2022-09-29T07:16:06;10.40;99.90
5554;DHT22;2800;49.528;8.666;2022-09-29T07:18:36;10.50;99.90
5554;DHT22;2800;49.528;8.666;2022-09-29T07:21:08;10.50;99.90
5554;DHT22;2800;49.528;8.666;2022-09-29T07:23:34;10.50;99.90
5554;DHT22;2800;49.528;8.666;2022-09-29T07:26:00;10.40;99.90
5554;DHT22;2800;49.528;8.666;2022-09-29T07:28:27;10.40;99.90
5554;DHT22;2800;49.528;8.666;2022-09-29T07:31:01;10.40;99.90
5554;DHT22;2800;49.528;8.666;2022-09-29T07:33:27;10.60;99.90
5554;DHT22;2800;49.528;8.666;2022-09-29T07:35:53;10.80;99.90
5554;DHT22;2800;49.528;8.666;2022-09-29T07:38:19;11.20;99.90
5554;DHT22;2800;49.528;8.666;2022-09-29T07:40:45;11.50;99.90
5554;DHT22;2800;49.528;8.666;2022-09-29T07:43:11;11.70;99.90
5554;DHT22;2800;49.528;8.666;2022-09-29T07:45:36;12.10;99.90
5554;DHT22;2800;49.528;8.666;2022-09-29T07:48:02;12.20;99.90
5554;DHT22;2800;49.528;8.666;2022-09-29T07:50:27;12.30;99.90
5554;DHT22;2800;49.528;8.666;2022-09-29T07:52:53;12.50;99.90
5554;DHT22;2800;49.528;8.666;2022-09-29T07:55:18;12.70;99.90
5554;DHT22;2800;49.528;8.666;2022-09-29T07:57:46;12.90;99.90
5554;DHT22;2800;49.528;8.666;2022-09-29T08:00:13;13.30;99.90
5554;DHT22;2800;49.528;8.666;2022-09-29T08:02:38;13.40;99.90
5554;DHT22;2800;49.528;8.666;2022-09-29T08:05:04;13.70;99.90
5554;DHT22;2800;49.528;8.666;2022-09-29T08:07:30;13.60;99.90
5554;DHT22;2800;49.528;8.666;2022-09-29T08:09:55;13.40;99.90
5554;DHT22;2800;49.528;8.666;2022-09-29T08:12:21;13.40;99.90
5554;DHT22;2800;49.528;8.666;2022-09-29T08:14:46;13.20;99.90
5554;DHT22;2800;49.528;8.666;2022-09-29T08:17:13;13.50;99.90
5554;DHT22;2800;49.528;8.666;2022-09-29T08:19:39;13.30;99.90
5554;DHT22;2800;49.528;8.666;2022-09-29T08:22:04;13.30;99.90
5554;DHT22;2800;49.528;8.666;2022-09-29T08:24:30;13.10;99.90
5554;DHT22;2800;49.528;8.666;2022-09-29T08:26:56;12.50;99.90
5554;DHT22;2800;49.528;8.666;2022-09-29T08:29:22;12.30;99.90
5554;DHT22;2800;49.528;8.666;2022-09-29T08:31:47;12.30;99.90
5554;DHT22;2800;49.528;8.666;2022-09-29T08:34:13;11.80;99.90
5554;DHT22;2800;49.528;8.666;2022-09-29T08:36:39;11.60;99.90
5554;DHT22;2800;49.528;8.666;2022-09-29T08:39:05;11.90;99.90
5554;DHT22;2800;49.528;8.666;2022-09-29T08:44:43;11.60;99.90
5554;DHT22;2800;49.528;8.666;2022-09-29T08:47:24;11.90;99.90
5554;DHT22;2800;49.528;8.666;2022-09-29T08:49:59;11.40;99.90
5554;DHT22;2800;49.528;8.666;2022-09-29T08:52:30;11.40;99.90
5554;DHT22;2800;49.528;8.666;2022-09-29T08:57:41;11.50;99.90
5554;DHT22;2800;49.528;8.666;2022-09-29T09:00:11;11.60;99.90
5554;DHT22;2800;49.528;8.666;2022-09-29T09:02:58;11.50;99.90
5554;DHT22;2800;49.528;8.666;2022-09-29T09:06:20;11.50;99.90
5554;DHT22;2800;49.528;8.666;2022-09-29T09:15:02;11.90;99.90
5554;DHT22;2800;49.528;8.666;2022-09-29T09:20:28;12.10;99.90
5554;DHT22;2800;49.528;8.666;2022-09-29T09:23:00;12.30;99.90
5554;DHT22;2800;49.528;8.666;2022-09-29T09:25:47;12.20;99.90
5554;DHT22;2800;49.528;8.666;2022-09-29T09:28:21;12.60;99.90
5554;DHT22;2800;49.528;8.666;2022-09-29T09:33:32;13.00;99.90
5554;DHT22;2800;49.528;8.666;2022-09-29T09:36:02;13.20;99.90
5554;DHT22;2800;49.528;8.666;2022-09-29T09:38:46;13.60;99.90
5554;DHT22;2800;49.528;8.666;2022-09-29T09:41:18;13.80;99.90
5554;DHT22;2800;49.528;8.666;2022-09-29T09:43:47;14.20;99.90
5554;DHT22;2800;49.528;8.666;2022-09-29T09:46:29;13.70;99.90
5554;DHT22;2800;49.528;8.666;2022-09-29T09:51:55;13.70;99.90
5554;DHT22;2800;49.528;8.666;2022-09-29T09:54:45;14.00;99.90
5554;DHT22;2800;49.528;8.666;2022-09-29T09:57:23;14.30;99.90
5554;DHT22;2800;49.528;8.666;2022-09-29T10:02:28;14.60;99.90
5554;DHT22;2800;49.528;8.666;2022-09-29T10:04:54;14.40;99.90
5554;DHT22;2800;49.528;8.666;2022-09-29T10:07:23;14.70;99.90
5554;DHT22;2800;49.528;8.666;2022-09-29T10:09:49;14.70;99.90
5554;DHT22;2800;49.528;8.666;2022-09-29T10:12:21;14.80;99.90
5554;DHT22;2800;49.528;8.666;2022-09-29T10:15:20;15.10;99.90
5554;DHT22;2800;49.528;8.666;2022-09-29T10:17:55;14.50;99.90
5554;DHT22;2800;49.528;8.666;2022-09-29T10:20:35;14.80;99.90
5554;DHT22;2800;49.528;8.666;2022-09-29T10:25:54;15.10;99.90
5554;DHT22;2800;49.528;8.666;2022-09-29T10:28:22;15.00;99.90
5554;DHT22;2800;49.528;8.666;2022-09-29T10:30:48;15.10;99.90
5554;DHT22;2800;49.528;8.666;2022-09-29T10:33:17;15.30;99.90
5554;DHT22;2800;49.528;8.666;2022-09-29T10:35:44;15.10;99.90
5554;DHT22;2800;49.528;8.666;2022-09-29T10:38:23;15.90;99.90
5554;DHT22;2800;49.528;8.666;2022-09-29T10:41:01;16.40;99.90
5554;DHT22;2800;49.528;8.666;2022-09-29T10:43:37;16.90;99.90
5554;DHT22;2800;49.528;8.666;2022-09-29T10:46:04;16.50;99.90
5554;DHT22;2800;49.528;8.666;2022-09-29T10:48:30;16.90;99.90
5554;DHT22;2800;49.528;8.666;2022-09-29T10:50:59;17.70;99.90
5554;DHT22;2800;49.528;8.666;2022-09-29T10:53:34;17.20;99.90
5554;DHT22;2800;49.528;8.666;2022-09-29T10:56:19;16.80;99.90
5554;DHT22;2800;49.528;8.666;2022-09-29T10:58:57;16.00;99.90
5554;DHT22;2800;49.528;8.666;2022-09-29T11:01:25;16.50;99.90
5554;DHT22;2800;49.528;8.666;2022-09-29T11:04:01;16.60;99.90
5554;DHT22;2800;49.528;8.666;2022-09-29T11:06:33;17.00;99.90
5554;DHT22;2800;49.528;8.666;2022-09-29T11:09:24;18.00;99.90
5554;DHT22;2800;49.528;8.666;2022-09-29T11:11:53;17.70;99.90
5554;DHT22;2800;49.528;8.666;2022-09-29T11:14:31;17.70;99.90
5554;DHT22;2800;49.528;8.666;2022-09-29T11:17:20;17.20;99.90
5554;DHT22;2800;49.528;8.666;2022-09-29T11:19:48;17.10;99.90
5554;DHT22;2800;49.528;8.666;2022-09-29T11:28:30;19.30;99.90
5554;DHT22;2800;49.528;8.666;2022-09-29T11:36:36;18.30;92.90
5554;DHT22;2800;49.528;8.666;2022-09-29T11:45:01;19.30;93.20
5554;DHT22;2800;49.528;8.666;2022-09-29T11:50:20;20.70;92.60
5554;DHT22;2800;49.528;8.666;2022-09-29T11:55:39;19.20;84.00
5554;DHT22;2800;49.528;8.666;2022-09-29T12:07:16;18.40;90.20
5554;DHT22;2800;49.528;8.666;2022-09-29T12:10:06;18.30;90.40
5554;DHT22;2800;49.528;8.666;2022-09-29T12:15:24;17.60;90.20
5554;DHT22;2800;49.528;8.666;2022-09-29T12:17:55;16.80;89.50
5554;DHT22;2800;49.528;8.666;2022-09-29T12:20:25;16.80;90.60
5554;DHT22;2800;49.528;8.666;2022-09-29T12:22:52;16.90;90.20
5554;DHT22;2800;49.528;8.666;2022-09-29T12:25:23;17.30;90.60
5554;DHT22;2800;49.528;8.666;2022-09-29T12:27:53;17.10;86.90
5554;DHT22;2800;49.528;8.666;2022-09-29T12:30:26;17.60;90.40
5554;DHT22;2800;49.528;8.666;2022-09-29T12:33:10;16.90;90.00
5554;DHT22;2800;49.528;8.666;2022-09-29T12:35:51;17.30;89.00
5554;DHT22;2800;49.528;8.666;2022-09-29T12:38:40;16.40;86.80
5554;DHT22;2800;49.528;8.666;2022-09-29T12:41:15;16.80;88.10
5554;DHT22;2800;49.528;8.666;2022-09-29T12:43:59;16.70;88.40
5554;DHT22;2800;49.528;8.666;2022-09-29T12:51:44;18.10;86.20
5554;DHT22;2800;49.528;8.666;2022-09-29T12:54:33;18.20;86.80
5554;DHT22;2800;49.528;8.666;2022-09-29T12:57:10;18.70;84.20
5554;DHT22;2800;49.528;8.666;2022-09-29T13:02:33;18.30;85.40
5554;DHT22;2800;49.528;8.666;2022-09-29T13:11:05;16.80;84.90
5554;DHT22;2800;49.528;8.666;2022-09-29T13:14:01;17.10;86.70
5554;DHT22;2800;49.528;8.666;2022-09-29T13:16:45;16.80;85.80
5554;DHT22;2800;49.528;8.666;2022-09-29T13:27:51;16.00;81.70
5554;DHT22;2800;49.528;8.666;2022-09-29T13:30:20;16.20;81.20
5554;DHT22;2800;49.528;8.666;2022-09-29T13:33:00;16.40;81.90
5554;DHT22;2800;49.528;8.666;2022-09-29T13:35:26;16.70;80.70
5554;DHT22;2800;49.528;8.666;2022-09-29T13:38:03;17.00;80.20
5554;DHT22;2800;49.528;8.666;2022-09-29T13:40:31;17.60;80.20
5554;DHT22;2800;49.528;8.666;2022-09-29T13:43:01;17.40;81.10
5554;DHT22;2800;49.528;8.666;2022-09-29T13:50:56;17.90;80.00
5554;DHT22;2800;49.528;8.666;2022-09-29T13:58:25;16.40;82.80
5554;DHT22;2800;49.528;8.666;2022-09-29T14:00:52;15.90;80.60
5554;DHT22;2800;49.528;8.666;2022-09-29T14:05:51;15.60;81.50
5554;DHT22;2800;49.528;8.666;2022-09-29T14:08:26;15.80;84.00
5554;DHT22;2800;49.528;8.666;2022-09-29T14:11:04;15.90;84.00
5554;DHT22;2800;49.528;8.666;2022-09-29T14:13:38;16.70;83.90
5554;DHT22;2800;49.528;8.666;2022-09-29T14:16:16;17.10;83.80
5554;DHT22;2800;49.528;8.666;2022-09-29T14:18:47;17.20;84.10
5554;DHT22;2800;49.528;8.666;2022-09-29T14:21:48;16.80;84.20
5554;DHT22;2800;49.528;8.666;2022-09-29T14:32:39;16.50;83.80
5554;DHT22;2800;49.528;8.666;2022-09-29T14:37:44;16.50;85.50
5554;DHT22;2800;49.528;8.666;2022-09-29T14:40:15;16.10;83.50
5554;DHT22;2800;49.528;8.666;2022-09-29T14:43:11;16.10;85.10
5554;DHT22;2800;49.528;8.666;2022-09-29T14:45:52;16.10;83.30
5554;DHT22;2800;49.528;8.666;2022-09-29T14:48:53;15.70;84.50
5554;DHT22;2800;49.528;8.666;2022-09-29T14:51:55;15.60;86.30
5554;DHT22;2800;49.528;8.666;2022-09-29T14:58:08;15.10;85.60
5554;DHT22;2800;49.528;8.666;2022-09-29T15:03:26;14.90;86.00
5554;DHT22;2800;49.528;8.666;2022-09-29T15:08:29;15.10;89.30
5554;DHT22;2800;49.528;8.666;2022-09-29T15:11:01;15.20;88.40
5554;DHT22;2800;49.528;8.666;2022-09-29T15:13:28;15.20;88.50
5554;DHT22;2800;49.528;8.666;2022-09-29T15:16:38;15.10;88.40
5554;DHT22;2800;49.528;8.666;2022-09-29T15:22:03;14.90;91.10
5554;DHT22;2800;49.528;8.666;2022-09-29T15:24:44;14.90;91.90
5554;DHT22;2800;49.528;8.666;2022-09-29T15:27:14;14.90;91.70
5554;DHT22;2800;49.528;8.666;2022-09-29T15:29:45;14.80;92.40
5554;DHT22;2800;49.528;8.666;2022-09-29T15:32:22;14.80;92.70
5554;DHT22;2800;49.528;8.666;2022-09-29T15:34:50;14.70;93.00
5554;DHT22;2800;49.528;8.666;2022-09-29T15:37:16;14.70;92.80
5554;DHT22;2800;49.528;8.666;2022-09-29T15:39:50;14.70;93.00
5554;DHT22;2800;49.528;8.666;2022-09-29T15:42:20;14.60;93.20
5554;DHT22;2800;49.528;8.666;2022-09-29T15:45:08;14.50;93.40
5554;DHT22;2800;49.528;8.666;2022-09-29T15:47:36;14.50;94.50
5554;DHT22;2800;49.528;8.666;2022-09-29T15:50:16;14.50;94.10
5554;DHT22;2800;49.528;8.666;2022-09-29T15:52:42;14.40;94.20
5554;DHT22;2800;49.528;8.666;2022-09-29T15:55:13;14.30;95.30
5554;DHT22;2800;49.528;8.666;2022-09-29T15:57:45;14.20;95.10
5554;DHT22;2800;49.528;8.666;2022-09-29T16:03:13;14.30;97.00
5554;DHT22;2800;49.528;8.666;2022-09-29T16:06:13;14.20;96.70
5554;DHT22;2800;49.528;8.666;2022-09-29T16:08:40;14.20;98.10
5554;DHT22;2800;49.528;8.666;2022-09-29T16:11:13;14.20;97.70
5554;DHT22;2800;49.528;8.666;2022-09-29T16:13:40;14.10;98.10
5554;DHT22;2800;49.528;8.666;2022-09-29T16:16:11;14.00;98.20
5554;DHT22;2800;49.528;8.666;2022-09-29T16:18:42;13.90;98.70
5554;DHT22;2800;49.528;8.666;2022-09-29T16:21:11;13.90;99.40
5554;DHT22;2800;49.528;8.666;2022-09-29T16:23:43;13.80;99.90
5554;DHT22;2800;49.528;8.666;2022-09-29T16:29:21;13.70;99.90
5554;DHT22;2800;49.528;8.666;2022-09-29T16:31:48;13.70;99.90
5554;DHT22;2800;49.528;8.666;2022-09-29T16:37:12;13.60;99.90
5554;DHT22;2800;49.528;8.666;2022-09-29T16:39:43;13.50;99.90
5554;DHT22;2800;49.528;8.666;2022-09-29T16:42:18;13.40;99.90
5554;DHT22;2800;49.528;8.666;2022-09-29T16:44:45;13.40;99.90
5554;DHT22;2800;49.528;8.666;2022-09-29T16:47:14;13.40;99.90
5554;DHT22;2800;49.528;8.666;2022-09-29T16:50:10;13.30;99.90
5554;DHT22;2800;49.528;8.666;2022-09-29T16:52:43;13.30;99.90
5554;DHT22;2800;49.528;8.666;2022-09-29T16:58:12;12.70;99.90
5554;DHT22;2800;49.528;8.666;2022-09-29T17:00:38;12.40;99.90
5554;DHT22;2800;49.528;8.666;2022-09-29T17:03:04;12.20;1.00
5554;DHT22;2800;49.528;8.666;2022-09-29T17:05:37;12.10;1.00
5554;DHT22;2800;49.528;8.666;2022-09-29T17:08:18;12.00;1.00
5554;DHT22;2800;49.528;8.666;2022-09-29T17:10:47;11.90;1.00
5554;DHT22;2800;49.528;8.666;2022-09-29T17:13:14;12.00;1.00
5554;DHT22;2800;49.528;8.666;2022-09-29T17:15:40;12.00;99.90
5554;DHT22;2800;49.528;8.666;2022-09-29T17:18:13;12.00;1.00
5554;DHT22;2800;49.528;8.666;2022-09-29T17:20:39;11.90;99.90
5554;DHT22;2800;49.528;8.666;2022-09-29T17:23:05;11.80;99.90
5554;DHT22;2800;49.528;8.666;2022-09-29T17:25:32;11.70;99.90
5554;DHT22;2800;49.528;8.666;2022-09-29T17:27:57;11.60;99.90
5554;DHT22;2800;49.528;8.666;2022-09-29T17:30:37;11.60;99.90
5554;DHT22;2800;49.528;8.666;2022-09-29T17:33:03;11.50;99.90
5554;DHT22;2800;49.528;8.666;2022-09-29T17:35:34;11.60;99.90
5554;DHT22;2800;49.528;8.666;2022-09-29T17:38:00;11.60;99.90
5554;DHT22;2800;49.528;8.666;2022-09-29T17:40:34;11.70;99.90
5554;DHT22;2800;49.528;8.666;2022-09-29T17:43:00;11.60;99.90
5554;DHT22;2800;49.528;8.666;2022-09-29T17:45:28;11.50;99.90
5554;DHT22;2800;49.528;8.666;2022-09-29T17:47:54;11.40;99.90
5554;DHT22;2800;49.528;8.666;2022-09-29T17:50:25;11.40;99.90
5554;DHT22;2800;49.528;8.666;2022-09-29T17:52:53;11.50;99.90
5554;DHT22;2800;49.528;8.666;2022-09-29T17:55:19;11.40;99.90
5554;DHT22;2800;49.528;8.666;2022-09-29T17:57:47;11.70;99.90
5554;DHT22;2800;49.528;8.666;2022-09-29T18:02:39;11.50;99.90
5554;DHT22;2800;49.528;8.666;2022-09-29T18:05:05;11.50;99.90
5554;DHT22;2800;49.528;8.666;2022-09-29T18:07:31;11.50;99.90
5554;DHT22;2800;49.528;8.666;2022-09-29T18:09:56;11.30;99.90
5554;DHT22;2800;49.528;8.666;2022-09-29T18:12:22;11.20;99.90
5554;DHT22;2800;49.528;8.666;2022-09-29T18:14:47;11.00;99.90
5554;DHT22;2800;49.528;8.666;2022-09-29T18:17:12;11.00;99.90
5554;DHT22;2800;49.528;8.666;2022-09-29T18:19:38;10.90;99.90
5554;DHT22;2800;49.528;8.666;2022-09-29T18:22:05;10.90;99.90
5554;DHT22;2800;49.528;8.666;2022-09-29T18:24:31;10.80;99.90
5554;DHT22;2800;49.528;8.666;2022-09-29T18:26:57;10.60;99.90
5554;DHT22;2800;49.528;8.666;2022-09-29T18:29:22;10.50;99.90
5554;DHT22;2800;49.528;8.666;2022-09-29T18:31:48;10.60;99.90
5554;DHT22;2800;49.528;8.666;2022-09-29T18:34:15;10.60;99.90
5554;DHT22;2800;49.528;8.666;2022-09-29T18:36:42;10.70;99.90
5554;DHT22;2800;49.528;8.666;2022-09-29T18:39:09;10.70;99.90
5554;DHT22;2800;49.528;8.666;2022-09-29T18:41:35;10.80;99.90
5554;DHT22;2800;49.528;8.666;2022-09-29T18:44:03;10.80;99.90
5554;DHT22;2800;49.528;8.666;2022-09-29T18:46:33;10.80;99.90
5554;DHT22;2800;49.528;8.666;2022-09-29T18:49:00;10.70;99.90
5554;DHT22;2800;49.528;8.666;2022-09-29T18:51:28;10.60;99.90
5554;DHT22;2800;49.528;8.666;2022-09-29T18:53:54;10.50;99.90
5554;DHT22;2800;49.528;8.666;2022-09-29T18:56:19;10.40;99.90
5554;DHT22;2800;49.528;8.666;2022-09-29T18:58:45;10.30;99.90
5554;DHT22;2800;49.528;8.666;2022-09-29T19:01:14;10.30;99.90
5554;DHT22;2800;49.528;8.666;2022-09-29T19:03:42;10.30;99.90
5554;DHT22;2800;49.528;8.666;2022-09-29T19:06:12;10.40;99.90
5554;DHT22;2800;49.528;8.666;2022-09-29T19:08:39;10.40;99.90
5554;DHT22;2800;49.528;8.666;2022-09-29T19:11:15;10.30;99.90
5554;DHT22;2800;49.528;8.666;2022-09-29T19:13:41;10.30;99.90
5554;DHT22;2800;49.528;8.666;2022-09-29T19:16:08;10.20;99.90
5554;DHT22;2800;49.528;8.666;2022-09-29T19:18:33;10.10;99.90
5554;DHT22;2800;49.528;8.666;2022-09-29T19:20:59;10.10;99.90
5554;DHT22;2800;49.528;8.666;2022-09-29T19:23:25;10.10;99.90
5554;DHT22;2800;49.528;8.666;2022-09-29T19:25:52;10.00;99.90